Terminal Aerodrome Forecast
Issued by NWS North Platte, NE

Home | Current Version | Previous Version | Graphics & Text | Print | Product List | Glossary On
Versions: 1 2 3 4 5 6 7 8 9 10 11 12 13 14 15 16 17 18 19 20 21
294
FTUS43 KLBF 101535 AAB
TAFVTN
TAF AMD
KVTN 101535Z 1016/1112 10012KT P6SM OVC015
      TEMPO 1016/1020 2SM -SN OVC010
     FM102000 14010KT P6SM OVC025
     FM110000 17005KT P6SM BKN040=

USA.gov is the U.S. government's official web portal to all federal, state and local government web resources and services.